createdAt,value
2018-12-08T00:01:01.712Z,11.81
2018-12-08T00:03:30.033Z,11.78
2018-12-08T00:05:58.512Z,11.78
2018-12-08T00:08:27.276Z,11.77
2018-12-08T00:10:55.508Z,11.77
2018-12-08T00:13:23.684Z,11.76
2018-12-08T00:15:51.920Z,11.73
2018-12-08T00:18:20.108Z,11.69
2018-12-08T00:20:48.270Z,11.68
2018-12-08T00:23:16.420Z,11.72
2018-12-08T00:25:44.661Z,11.77
2018-12-08T00:28:12.817Z,11.80
2018-12-08T00:30:52.416Z,11.84
2018-12-08T00:33:20.628Z,11.87
2018-12-08T00:35:48.904Z,11.88
2018-12-08T00:38:17.180Z,11.84
2018-12-08T00:40:45.320Z,11.78
2018-12-08T00:43:13.528Z,11.73
2018-12-08T00:45:41.833Z,11.67
2018-12-08T00:48:09.982Z,11.61
2018-12-08T00:50:38.145Z,11.58
2018-12-08T00:53:06.441Z,11.55
2018-12-08T00:55:34.727Z,11.54
2018-12-08T00:58:02.877Z,11.52
2018-12-08T01:00:31.068Z,11.51
2018-12-08T01:02:59.340Z,11.46
2018-12-08T01:05:27.548Z,11.41
2018-12-08T01:07:55.788Z,11.35
2018-12-08T01:10:23.944Z,11.28
2018-12-08T01:12:52.353Z,11.19
2018-12-08T01:15:20.632Z,11.11
2018-12-08T01:17:48.789Z,11.05
2018-12-08T01:20:17.089Z,11.01
2018-12-08T01:22:45.251Z,10.98
2018-12-08T01:25:13.720Z,10.96
2018-12-08T01:27:42.010Z,10.91
2018-12-08T01:30:10.504Z,10.93
2018-12-08T01:32:38.753Z,10.87
2018-12-08T01:35:07.048Z,10.86
2018-12-08T01:37:35.216Z,10.85
2018-12-08T01:40:03.928Z,10.82
2018-12-08T01:42:32.079Z,10.86
2018-12-08T01:45:00.260Z,10.95
2018-12-08T01:47:28.424Z,11.08
2018-12-08T01:49:56.628Z,11.16
2018-12-08T01:52:24.780Z,11.25
2018-12-08T01:54:53.232Z,11.30
2018-12-08T01:57:21.668Z,11.34
2018-12-08T01:59:50.032Z,11.36
2018-12-08T02:02:18.320Z,11.40
2018-12-08T02:04:46.472Z,11.43
2018-12-08T02:07:14.653Z,11.45
2018-12-08T02:09:42.821Z,11.47
2018-12-08T02:12:11.016Z,11.48
2018-12-08T02:14:39.272Z,11.54
2018-12-08T02:17:07.457Z,11.57
2018-12-08T02:19:35.720Z,11.60
2018-12-08T02:22:04.024Z,11.64
2018-12-08T02:24:32.296Z,11.65
2018-12-08T02:27:00.580Z,11.67
2018-12-08T02:29:28.848Z,11.67
2018-12-08T02:31:57.030Z,11.63
2018-12-08T02:34:25.272Z,11.62
2018-12-08T02:36:53.469Z,11.61
2018-12-08T02:39:21.638Z,11.61
2018-12-08T02:41:50.065Z,11.58
2018-12-08T02:44:18.310Z,11.57
2018-12-08T02:46:46.588Z,11.57
2018-12-08T02:49:14.847Z,11.57
2018-12-08T02:51:43.036Z,11.56
2018-12-08T02:54:11.177Z,11.58
2018-12-08T02:56:39.380Z,11.61
2018-12-08T02:59:07.644Z,11.59
2018-12-08T03:01:35.844Z,11.60
2018-12-08T03:04:04.168Z,11.60
2018-12-08T03:06:32.497Z,11.56
2018-12-08T03:09:00.665Z,11.53
2018-12-08T03:11:29.097Z,11.54
2018-12-08T03:13:57.240Z,11.57
2018-12-08T03:16:25.388Z,11.56
2018-12-08T03:18:53.546Z,11.57
2018-12-08T03:21:21.948Z,11.57
2018-12-08T03:23:50.129Z,11.58
2018-12-08T03:26:18.288Z,11.57
2018-12-08T03:28:46.485Z,11.58
2018-12-08T03:31:14.741Z,11.59
2018-12-08T03:33:42.924Z,11.58
2018-12-08T03:36:11.093Z,11.59
2018-12-08T03:38:39.273Z,11.58
2018-12-08T03:41:07.558Z,11.55
2018-12-08T03:43:35.944Z,11.55
2018-12-08T03:46:04.208Z,11.58
2018-12-08T03:48:32.376Z,11.56
2018-12-08T03:51:00.558Z,11.53
2018-12-08T03:53:28.704Z,11.54
2018-12-08T03:55:57.013Z,11.51
2018-12-08T03:58:25.192Z,11.48
2018-12-08T04:00:53.353Z,11.47
2018-12-08T04:03:21.640Z,11.49
2018-12-08T04:05:49.806Z,11.47
2018-12-08T04:08:17.952Z,11.43
2018-12-08T04:10:46.273Z,11.50
2018-12-08T04:13:14.441Z,11.44
2018-12-08T04:15:42.606Z,11.42
2018-12-08T04:18:10.799Z,11.40
2018-12-08T04:20:38.994Z,11.44
2018-12-08T04:23:07.141Z,11.41
2018-12-08T04:25:35.416Z,11.40
2018-12-08T04:28:03.561Z,11.40
2018-12-08T04:30:31.769Z,11.35
2018-12-08T04:32:59.921Z,11.37
2018-12-08T04:35:28.221Z,11.33
2018-12-08T04:37:56.388Z,11.32
2018-12-08T04:40:24.574Z,11.29
2018-12-08T04:42:52.941Z,11.28
2018-12-08T04:45:21.154Z,11.18
2018-12-08T04:47:49.292Z,11.10
2018-12-08T04:50:17.456Z,10.99
2018-12-08T04:52:45.636Z,10.93
2018-12-08T04:55:13.825Z,10.88
2018-12-08T04:57:42.092Z,10.83
2018-12-08T05:00:10.500Z,10.81
2018-12-08T05:02:38.724Z,10.81
2018-12-08T05:05:07.148Z,10.83
2018-12-08T05:07:35.400Z,10.88
2018-12-08T05:10:03.804Z,10.89
2018-12-08T05:12:31.960Z,10.93
2018-12-08T05:15:00.114Z,10.96
2018-12-08T05:17:28.415Z,10.97
2018-12-08T05:19:56.596Z,10.99
2018-12-08T05:22:24.766Z,11.00
2018-12-08T05:24:52.969Z,11.06
2018-12-08T05:27:21.120Z,11.03
2018-12-08T05:29:49.437Z,11.00
2018-12-08T05:32:17.789Z,11.00
2018-12-08T05:34:45.981Z,11.02
2018-12-08T05:37:14.125Z,11.06
2018-12-08T05:39:42.281Z,11.07
2018-12-08T05:42:10.596Z,11.12
2018-12-08T05:44:38.748Z,11.13
2018-12-08T05:47:06.937Z,11.14
2018-12-08T05:49:35.196Z,11.16
2018-12-08T05:52:03.349Z,11.16
2018-12-08T05:54:31.657Z,11.18
2018-12-08T05:56:59.896Z,11.19
2018-12-08T05:59:28.206Z,11.12
2018-12-08T06:01:56.444Z,11.13
2018-12-08T06:04:24.656Z,11.11
2018-12-08T06:06:52.845Z,11.08
2018-12-08T06:09:21.009Z,11.08
2018-12-08T06:11:49.194Z,11.09
2018-12-08T06:14:17.329Z,11.07
2018-12-08T06:16:45.545Z,11.07
2018-12-08T06:19:13.809Z,11.06
2018-12-08T06:21:41.960Z,11.08
2018-12-08T06:24:10.104Z,11.09
2018-12-08T06:26:47.149Z,11.11
2018-12-08T06:29:16.028Z,11.09
2018-12-08T06:31:44.316Z,11.06
2018-12-08T06:34:12.679Z,11.05
2018-12-08T06:36:40.849Z,11.03
2018-12-08T06:39:09.040Z,11.03
2018-12-08T06:41:37.223Z,11.03
2018-12-08T06:44:05.508Z,11.00
2018-12-08T06:46:33.797Z,10.97
2018-12-08T06:49:01.964Z,10.95
2018-12-08T06:51:30.129Z,10.95
2018-12-08T06:53:58.300Z,10.93
2018-12-08T06:56:26.444Z,10.93
2018-12-08T06:58:54.760Z,10.90
2018-12-08T07:01:22.916Z,10.88
2018-12-08T07:03:51.104Z,10.88
2018-12-08T07:06:19.393Z,10.89
2018-12-08T07:08:47.640Z,10.90
2018-12-08T07:11:15.780Z,10.90
2018-12-08T07:13:43.933Z,10.89
2018-12-08T07:16:12.392Z,10.86
2018-12-08T07:18:40.568Z,10.84
2018-12-08T07:21:08.830Z,10.85
2018-12-08T07:23:37.016Z,10.81
2018-12-08T07:26:05.164Z,10.84
2018-12-08T07:28:33.353Z,10.83
2018-12-08T07:31:01.646Z,10.82
2018-12-08T07:33:29.932Z,10.83
2018-12-08T07:35:58.125Z,10.84
2018-12-08T07:38:26.285Z,10.83
2018-12-08T07:40:54.440Z,10.89
2018-12-08T07:43:22.736Z,10.90
2018-12-08T07:45:50.884Z,10.94
2018-12-08T07:48:19.199Z,10.95
2018-12-08T07:50:47.560Z,10.96
2018-12-08T07:53:15.952Z,10.96
2018-12-08T07:55:44.097Z,10.97
2018-12-08T07:58:12.277Z,10.98
2018-12-08T08:00:40.579Z,10.94
2018-12-08T08:03:08.728Z,10.91
2018-12-08T08:05:36.921Z,10.93
2018-12-08T08:08:05.080Z,10.90
2018-12-08T08:10:33.460Z,10.87
2018-12-08T08:13:01.745Z,10.87
2018-12-08T08:15:29.986Z,10.88
2018-12-08T08:17:58.192Z,10.84
2018-12-08T08:20:26.441Z,10.85
2018-12-08T08:22:54.681Z,10.86
2018-12-08T08:25:22.920Z,10.83
2018-12-08T08:27:51.203Z,10.82
2018-12-08T08:30:19.489Z,10.82
2018-12-08T08:32:47.662Z,10.82
2018-12-08T08:35:15.837Z,10.84
2018-12-08T08:37:43.992Z,10.80
2018-12-08T08:40:12.311Z,10.81
2018-12-08T08:42:40.453Z,10.80
2018-12-08T08:45:09.258Z,10.79
2018-12-08T08:47:38.130Z,10.80
2018-12-08T08:50:09.296Z,10.81
2018-12-08T08:52:37.457Z,10.85
2018-12-08T08:55:06.468Z,10.85
2018-12-08T08:57:34.616Z,10.87
2018-12-08T09:00:03.071Z,10.88
2018-12-08T09:02:31.405Z,10.86
2018-12-08T09:04:59.556Z,10.86
2018-12-08T09:07:27.719Z,10.90
2018-12-08T09:09:55.946Z,10.88
2018-12-08T09:12:24.101Z,10.91
2018-12-08T09:14:52.248Z,10.97
2018-12-08T09:17:20.440Z,10.99
2018-12-08T09:19:48.604Z,10.99
2018-12-08T09:22:16.844Z,10.97
2018-12-08T09:24:45.325Z,10.96
2018-12-08T09:27:13.550Z,10.98
2018-12-08T09:29:41.846Z,11.00
2018-12-08T09:32:10.109Z,11.01
2018-12-08T09:34:38.269Z,10.96
2018-12-08T09:37:06.677Z,10.97
2018-12-08T09:39:34.820Z,10.96
2018-12-08T09:42:03.234Z,10.96
2018-12-08T09:44:31.439Z,10.95
2018-12-08T09:46:59.591Z,10.93
2018-12-08T09:49:27.740Z,10.92
2018-12-08T09:51:56.021Z,10.94
2018-12-08T09:54:24.324Z,10.94
2018-12-08T09:56:52.597Z,10.95
2018-12-08T09:59:20.838Z,10.98
2018-12-08T10:01:49.184Z,10.97
2018-12-08T10:04:17.420Z,10.97
2018-12-08T10:06:45.740Z,10.95
2018-12-08T10:09:14.409Z,10.95
2018-12-08T10:11:43.393Z,10.98
2018-12-08T10:14:11.604Z,10.93
2018-12-08T10:16:39.821Z,10.94
2018-12-08T10:19:08.043Z,10.89
2018-12-08T10:21:36.501Z,10.83
2018-12-08T10:24:04.752Z,10.80
2018-12-08T10:26:33.007Z,10.77
2018-12-08T10:29:01.189Z,10.76
2018-12-08T10:31:29.363Z,10.79
2018-12-08T10:33:57.681Z,10.79
2018-12-08T10:36:25.859Z,10.84
2018-12-08T10:38:54.153Z,10.87
2018-12-08T10:41:22.334Z,10.89
2018-12-08T10:43:50.520Z,10.89
2018-12-08T10:46:18.789Z,10.88
2018-12-08T10:48:47.161Z,10.89
2018-12-08T10:51:15.763Z,10.98
2018-12-08T10:53:43.990Z,11.03
2018-12-08T10:56:12.220Z,11.13
2018-12-08T10:58:40.435Z,11.27
2018-12-08T11:01:14.140Z,11.37
2018-12-08T11:03:49.021Z,11.40
2018-12-08T11:06:17.348Z,11.53
2018-12-08T11:08:45.737Z,11.69
2018-12-08T11:11:13.900Z,11.79
2018-12-08T11:13:42.188Z,11.88
2018-12-08T11:16:10.486Z,11.93
2018-12-08T11:18:38.744Z,11.98
2018-12-08T11:21:06.917Z,11.89
2018-12-08T11:23:35.096Z,11.87
2018-12-08T11:26:03.398Z,11.84
2018-12-08T11:28:31.629Z,11.79
2018-12-08T11:30:59.900Z,11.79
2018-12-08T11:33:28.136Z,11.85
2018-12-08T11:35:56.393Z,11.88
2018-12-08T11:38:24.692Z,11.90
2018-12-08T11:40:52.924Z,11.89
2018-12-08T11:43:21.353Z,11.93
2018-12-08T11:45:49.692Z,11.94
2018-12-08T11:48:17.848Z,11.94
2018-12-08T11:50:46.136Z,11.97
2018-12-08T11:53:14.297Z,11.94
2018-12-08T11:55:42.493Z,11.83
2018-12-08T11:58:10.790Z,11.87
2018-12-08T12:00:39.080Z,11.91
2018-12-08T12:03:07.317Z,11.96
2018-12-08T12:05:35.473Z,11.98
2018-12-08T12:08:03.877Z,12.04
2018-12-08T12:10:32.038Z,12.08
2018-12-08T12:13:00.185Z,12.12
2018-12-08T12:15:28.358Z,12.19
2018-12-08T12:17:56.564Z,12.30
2018-12-08T12:20:24.734Z,12.37
2018-12-08T12:22:52.891Z,12.42
2018-12-08T12:25:22.099Z,12.47
2018-12-08T12:27:50.541Z,12.52
2018-12-08T12:30:19.096Z,12.56
2018-12-08T12:32:47.245Z,12.61
2018-12-08T12:35:15.413Z,12.64
2018-12-08T12:37:43.572Z,12.63
2018-12-08T12:40:11.888Z,12.55
2018-12-08T12:42:40.056Z,12.53
2018-12-08T12:45:08.389Z,12.53
2018-12-08T12:47:36.637Z,12.44
2018-12-08T12:50:05.489Z,12.40
2018-12-08T12:52:33.776Z,12.32
2018-12-08T12:55:02.056Z,12.28
2018-12-08T12:57:30.336Z,12.20
2018-12-08T12:59:58.761Z,12.14
2018-12-08T13:02:26.900Z,12.07
2018-12-08T13:04:55.082Z,12.03
2018-12-08T13:07:23.263Z,12.06
2018-12-08T13:09:51.553Z,12.04
2018-12-08T13:12:20.419Z,12.00
2018-12-08T13:14:48.568Z,12.05
2018-12-08T13:17:16.766Z,12.06
2018-12-08T13:19:45.024Z,12.03
2018-12-08T13:22:13.215Z,12.06
2018-12-08T13:24:41.490Z,12.09
2018-12-08T13:27:09.779Z,12.15
2018-12-08T13:29:38.038Z,12.29
2018-12-08T13:32:06.532Z,12.30
2018-12-08T13:34:34.806Z,12.38
2018-12-08T13:37:02.988Z,12.37
2018-12-08T13:39:31.241Z,12.35
2018-12-08T13:41:59.433Z,12.38
2018-12-08T13:44:36.115Z,12.31
2018-12-08T13:47:04.705Z,12.23
2018-12-08T13:49:33.477Z,12.22
2018-12-08T13:52:01.766Z,12.18
2018-12-08T13:54:46.227Z,12.16
2018-12-08T13:57:14.497Z,12.16
2018-12-08T13:59:50.280Z,12.11
2018-12-08T14:02:18.428Z,12.08
2018-12-08T14:04:46.572Z,12.07
2018-12-08T14:07:14.728Z,12.03
2018-12-08T14:09:42.941Z,12.04
2018-12-08T14:12:11.182Z,12.00
2018-12-08T14:14:39.588Z,11.97
2018-12-08T14:17:08.415Z,11.97
2018-12-08T14:19:36.557Z,11.90
2018-12-08T14:22:05.059Z,11.85
2018-12-08T14:24:33.204Z,11.78
2018-12-08T14:27:01.355Z,11.81
2018-12-08T14:29:29.560Z,11.79
2018-12-08T14:31:58.028Z,11.78
2018-12-08T14:34:26.324Z,11.77
2018-12-08T14:36:54.568Z,11.77
2018-12-08T14:39:22.764Z,11.79
2018-12-08T14:41:50.968Z,11.77
2018-12-08T14:44:19.336Z,11.76
2018-12-08T14:46:47.713Z,11.77
2018-12-08T14:49:15.964Z,11.83
2018-12-08T14:51:44.161Z,11.83
2018-12-08T14:54:12.460Z,11.86
2018-12-08T14:56:40.712Z,11.86
2018-12-08T14:59:09.112Z,11.85
2018-12-08T15:01:37.272Z,11.83
2018-12-08T15:04:05.560Z,11.83
2018-12-08T15:06:33.793Z,11.81
2018-12-08T15:09:02.121Z,11.83
2018-12-08T15:11:30.369Z,11.84
2018-12-08T15:13:58.563Z,11.81
2018-12-08T15:16:26.820Z,11.75
2018-12-08T15:18:55.012Z,11.71
2018-12-08T15:21:23.177Z,11.68
2018-12-08T15:23:51.368Z,11.64
2018-12-08T15:26:19.568Z,11.61
2018-12-08T15:28:47.920Z,11.62
2018-12-08T15:31:16.201Z,11.66
2018-12-08T15:33:44.444Z,11.68
2018-12-08T15:36:12.765Z,11.69
2018-12-08T15:38:40.928Z,11.68
2018-12-08T15:41:09.188Z,11.69
2018-12-08T15:43:37.380Z,11.70
2018-12-08T15:46:05.847Z,11.71
2018-12-08T15:48:34.492Z,11.69
2018-12-08T15:51:02.925Z,11.69
2018-12-08T15:53:31.124Z,11.71
2018-12-08T15:55:59.302Z,11.69
2018-12-08T15:58:27.772Z,11.68
2018-12-08T16:00:56.161Z,11.70
2018-12-08T16:03:24.428Z,11.70
2018-12-08T16:05:52.592Z,11.68
2018-12-08T16:08:20.766Z,11.68
2018-12-08T16:10:49.153Z,11.70
2018-12-08T16:13:17.412Z,11.67
2018-12-08T16:15:45.812Z,11.64
2018-12-08T16:18:14.065Z,11.62
2018-12-08T16:20:42.385Z,11.64
2018-12-08T16:23:10.624Z,11.60
2018-12-08T16:25:39.026Z,11.61
2018-12-08T16:28:07.297Z,11.61
2018-12-08T16:30:35.580Z,11.58
2018-12-08T16:33:03.934Z,11.59
2018-12-08T16:35:32.236Z,11.56
2018-12-08T16:38:00.389Z,11.57
2018-12-08T16:40:28.794Z,11.53
2018-12-08T16:42:56.968Z,11.51
2018-12-08T16:45:25.344Z,11.44
2018-12-08T16:47:53.877Z,11.41
2018-12-08T16:50:22.058Z,11.43
2018-12-08T16:52:50.255Z,11.41
2018-12-08T16:55:18.454Z,11.45
2018-12-08T16:57:46.717Z,11.45
2018-12-08T17:00:15.320Z,11.50
2018-12-08T17:02:43.479Z,11.48
2018-12-08T17:05:11.866Z,11.48
2018-12-08T17:07:40.037Z,11.50
2018-12-08T17:10:08.736Z,11.54
2018-12-08T17:12:37.011Z,11.56
2018-12-08T17:15:05.997Z,11.59
2018-12-08T17:17:34.284Z,11.61
2018-12-08T17:20:02.648Z,11.58
2018-12-08T17:22:30.965Z,11.61
2018-12-08T17:24:59.331Z,11.61
2018-12-08T17:27:27.484Z,11.65
2018-12-08T17:29:55.641Z,11.66
2018-12-08T17:32:23.803Z,11.67
2018-12-08T17:34:52.095Z,11.69
2018-12-08T17:37:20.400Z,11.72
2018-12-08T17:39:48.656Z,11.69
2018-12-08T17:42:16.944Z,11.72
2018-12-08T17:44:45.088Z,11.72
2018-12-08T17:47:13.609Z,11.74
2018-12-08T17:49:41.764Z,11.76
2018-12-08T17:52:10.160Z,11.79
2018-12-08T17:54:38.424Z,11.76
2018-12-08T17:57:06.668Z,11.75
2018-12-08T17:59:34.886Z,11.77
2018-12-08T18:02:03.260Z,11.76
2018-12-08T18:04:31.540Z,11.76
2018-12-08T18:06:59.688Z,11.77
2018-12-08T18:09:27.928Z,11.75
2018-12-08T18:11:56.089Z,11.76
2018-12-08T18:14:24.241Z,11.77
2018-12-08T18:16:52.446Z,11.78
2018-12-08T18:19:20.607Z,11.87
2018-12-08T18:21:48.920Z,11.80
2018-12-08T18:24:17.239Z,11.80
2018-12-08T18:26:45.629Z,11.78
2018-12-08T18:29:13.796Z,11.76
2018-12-08T18:31:42.116Z,11.75
2018-12-08T18:34:10.473Z,11.76
2018-12-08T18:36:38.727Z,11.73
2018-12-08T18:39:07.456Z,11.72
2018-12-08T18:41:35.701Z,11.74
2018-12-08T18:44:03.957Z,11.74
2018-12-08T18:46:32.154Z,11.76
2018-12-08T18:49:00.328Z,11.78
2018-12-08T18:51:28.596Z,11.79
2018-12-08T18:53:56.752Z,11.78
2018-12-08T18:56:24.897Z,11.77
2018-12-08T18:58:53.122Z,11.75
2018-12-08T19:01:21.542Z,11.77
2018-12-08T19:03:49.785Z,11.73
2018-12-08T19:06:17.944Z,11.71
2018-12-08T19:08:46.178Z,11.70
2018-12-08T19:11:14.423Z,11.71
2018-12-08T19:13:42.580Z,11.77
2018-12-08T19:16:10.794Z,11.73
2018-12-08T19:18:38.963Z,11.68
2018-12-08T19:21:07.219Z,11.67
2018-12-08T19:23:43.389Z,11.59
2018-12-08T19:26:05.815Z,11.56
2018-12-08T19:28:34.080Z,11.56
2018-12-08T19:31:02.263Z,11.54
2018-12-08T19:33:30.546Z,11.54
2018-12-08T19:35:59.636Z,11.56
2018-12-08T19:38:28.046Z,11.59
2018-12-08T19:40:56.199Z,11.62
2018-12-08T19:43:27.496Z,11.65
2018-12-08T19:45:55.833Z,11.64
2018-12-08T19:48:23.979Z,11.65
2018-12-08T19:50:52.208Z,11.67
2018-12-08T19:53:20.437Z,11.71
2018-12-08T19:55:48.636Z,11.72
2018-12-08T19:58:16.804Z,11.77
2018-12-08T20:00:44.968Z,11.79
2018-12-08T20:03:13.257Z,11.76
2018-12-08T20:05:41.532Z,11.78
2018-12-08T20:08:09.760Z,11.77
2018-12-08T20:10:37.976Z,11.77
2018-12-08T20:13:06.364Z,11.77
2018-12-08T20:15:34.756Z,11.78
2018-12-08T20:18:02.897Z,11.83
2018-12-08T20:20:31.201Z,11.79
2018-12-08T20:22:59.560Z,11.78
2018-12-08T20:25:27.776Z,11.78
2018-12-08T20:27:56.017Z,11.76
2018-12-08T20:30:24.184Z,11.75
2018-12-08T20:32:52.377Z,11.77
2018-12-08T20:35:20.600Z,11.79
2018-12-08T20:37:48.749Z,11.81
2018-12-08T20:40:16.989Z,11.80
2018-12-08T20:42:45.173Z,11.81
2018-12-08T20:45:13.456Z,11.83
2018-12-08T20:47:41.628Z,11.85
2018-12-08T20:50:09.800Z,11.85
2018-12-08T20:52:38.095Z,11.85
2018-12-08T20:55:06.464Z,11.84
2018-12-08T20:57:34.638Z,11.82
2018-12-08T21:00:03.015Z,11.83
2018-12-08T21:02:31.193Z,11.87
2018-12-08T21:04:59.569Z,11.90
2018-12-08T21:07:27.720Z,11.91
2018-12-08T21:09:56.008Z,11.95
2018-12-08T21:12:24.197Z,11.97
2018-12-08T21:14:52.465Z,11.98
2018-12-08T21:17:20.627Z,11.96
2018-12-08T21:19:48.807Z,11.94
2018-12-08T21:22:17.001Z,11.93
2018-12-08T21:24:45.208Z,11.94
2018-12-08T21:27:13.353Z,11.92
2018-12-08T21:29:41.655Z,11.95
2018-12-08T21:32:10.970Z,11.96
2018-12-08T21:34:39.405Z,11.94
2018-12-08T21:37:07.553Z,11.95
2018-12-08T21:39:35.797Z,11.95
2018-12-08T21:42:04.126Z,12.01
2018-12-08T21:44:32.428Z,12.02
2018-12-08T21:47:00.823Z,12.04
2018-12-08T21:49:28.998Z,12.07
2018-12-08T21:51:57.232Z,12.07
2018-12-08T21:54:25.433Z,12.09
2018-12-08T21:56:53.633Z,12.08
2018-12-08T21:59:21.903Z,12.11
2018-12-08T22:01:50.156Z,12.10
2018-12-08T22:04:18.387Z,12.16
2018-12-08T22:06:46.697Z,12.12
2018-12-08T22:09:15.001Z,12.15
2018-12-08T22:11:43.276Z,12.17
2018-12-08T22:14:11.557Z,12.19
2018-12-08T22:16:39.836Z,12.20
2018-12-08T22:19:08.217Z,12.22
2018-12-08T22:21:36.615Z,12.28
2018-12-08T22:24:05.053Z,12.23
2018-12-08T22:26:33.328Z,12.24
2018-12-08T22:29:01.632Z,12.22
2018-12-08T22:31:29.936Z,12.25
2018-12-08T22:33:58.152Z,12.29
2018-12-08T22:36:26.358Z,12.27
2018-12-08T22:38:54.500Z,12.23
2018-12-08T22:41:22.796Z,12.19
2018-12-08T22:43:50.952Z,12.18
2018-12-08T22:46:19.360Z,12.16
2018-12-08T22:48:47.517Z,12.12
2018-12-08T22:51:15.791Z,12.11
2018-12-08T22:53:43.962Z,12.08
2018-12-08T22:56:12.148Z,12.10
2018-12-08T22:58:40.525Z,12.10
2018-12-08T23:01:08.860Z,12.14
2018-12-08T23:03:37.078Z,12.12
2018-12-08T23:06:05.372Z,12.12
2018-12-08T23:08:33.568Z,12.12
2018-12-08T23:11:01.721Z,12.14
2018-12-08T23:13:29.859Z,12.11
2018-12-08T23:15:58.185Z,12.12
2018-12-08T23:18:26.449Z,12.14
2018-12-08T23:20:54.623Z,12.19
2018-12-08T23:23:22.788Z,12.23
2018-12-08T23:25:51.085Z,12.22
2018-12-08T23:28:19.250Z,12.24
2018-12-08T23:30:47.616Z,12.25
2018-12-08T23:33:15.961Z,12.21
2018-12-08T23:35:44.272Z,12.21
2018-12-08T23:38:12.576Z,12.18
2018-12-08T23:40:40.752Z,12.16
2018-12-08T23:43:08.912Z,12.14
2018-12-08T23:45:37.068Z,12.14
2018-12-08T23:48:05.377Z,12.18
2018-12-08T23:50:33.676Z,12.18
2018-12-08T23:53:01.816Z,12.23
2018-12-08T23:55:29.964Z,12.30
2018-12-08T23:57:58.112Z,12.27
